Merritt Island, FL (32953)

12:07 PM EDT on September 05, 2015 (GMT -0400)
Waterway Manor | | Change Station
CLOSE
Current Station
Personal Weather Station
Location: Merritt Island, FL
Elevation: 16 ft
Nearby Weather Stations

Elev 16 ft 28.39 °N, 80.70 °W | Updated 35 seconds ago

Partly Cloudy
Partly Cloudy
75.0 °F
Feels Like 74 °F
N
13.0
Wind Variable Wind from North
Gusts 19.0 mph

Today
High -- | Low -- °F
--% Chance of Precip.
Yesterday
High -- | Low -- °F
Precip. -- in
7:02 AM 7:39 PM
Waning Gibbous, 47% visible
Pressure 30.02 in
Visibility 10.0 miles
Clouds Clear
Heat Index 74 °F
Dew Point 72 °F
Humidity 89%
Rainfall 0.69 in
Snow Depth Not available.
UV 12 out of 12
Pollen 6.60 out of 12
Air Quality Not available.
Flu Activity Not available.
SPECI KXMR 051559Z AUTO 03005KT 10SM TS CLR 33/26 A3002 RMK AO2 LTG DSNT W TSB59 $
Pressure 30.02 in
Visibility 10.0 miles
Clouds Clear
Heat Index 74 °F
Dew Point 72 °F
Humidity 89%
Rainfall 0.69 in
Snow Depth Not available.
UV 12 out of 12
Pollen 6.60 out of 12
Air Quality Not available.
Flu Activity Not available.
SPECI KXMR 051559Z AUTO 03005KT 10SM TS CLR 33/26 A3002 RMK AO2 LTG DSNT W TSB59 $
Nowcast | as of 10:12 am EDT on September 5, 2015

Scattered lightning storms are expected to develop just inland from the coast through early afternoon as the East Coast sea breeze develops. Slow storm motion toward the south at 10 mph will produce locally heavy rainfall which will cause temporary minor flooding of low lying and poor drainage areas. Storm coverage will increase this afternoon over the interior from Lake County southward across the Orlando Metro to Okeechobee. Dangerous lightning strikes will be the primary threat. Additional details...including graphics are available online at: http://www.Srh.NOAA.Gov/mlb/blog.Php

×

10-Day Weather Forecast

×

Almanac

Astronomy

Sep. 05, 2015 Rise Set
Actual Time
Civil Twilight
Nautical Twilight
Astronomical Twilight
Moon
Length of Visible Light
Length of Day
Tomorrow will be .
, % of the Moon is Illuminated

Today's Extremes

State Highs State Lows

Community

WunderPhotos

Upload Photos

1,852,495 photos uploaded!

WunderBlogs® & News

Nearby

Air Quality

  Air Quality AQ Index Pollutant
Not available.

Snow Depth

Station Depth Elevation

Earthquake Activity

City Distance Mag. Time & Date
Minimum magnitude displayed is 2.5.

Coastal Water Temperatures

Place Temperature

Stations

Nearby Weather Stations

Station Location Temp. Windchill Dew Point Humidity Wind Precip. Elev Updated Type